Time;durP1;ratioP1;P1;durP2;ratioP2;P2;SDS_P1;SDS_P2;PMS_P1;PMS_P2;Temp;Humidity;BMP_temperature;BMP_pressure;BME280_temperature;BME280_humidity;BME280_pressure;Samples;Min_cycle;Max_cycle;Signal;HPM_P1;HPM_P2
2022/10/09 00:01:13;;;;;;;9.00;8.15;;;;;;;11.00;73.09;95291.44;5097845;28;20258;-69
2022/10/09 00:03:42;;;;;;;9.18;8.05;;;;;;;10.98;72.92;95297.31;5097723;28;20205;-69
2022/10/09 00:06:11;;;;;;;8.98;8.15;;;;;;;10.98;73.42;95293.75;5096556;28;20634;-72
2022/10/09 00:08:39;;;;;;;8.02;7.30;;;;;;;10.94;72.88;95301.94;5096707;28;20196;-71
2022/10/09 00:11:07;;;;;;;8.32;7.53;;;;;;;10.91;73.01;95296.31;5097265;28;20632;-70
2022/10/09 00:13:33;;;;;;;8.75;7.93;;;;;;;10.89;73.09;95293.06;5098153;28;20191;-70
2022/10/09 00:16:02;;;;;;;8.98;8.02;;;;;;;10.86;73.26;95286.31;5097609;28;20192;-70
2022/10/09 00:18:29;;;;;;;8.10;7.35;;;;;;;10.87;73.37;95287.91;5097296;28;20201;-70
2022/10/09 00:20:58;;;;;;;8.60;7.70;;;;;;;10.89;73.28;95287.56;5097674;28;20203;-70
2022/10/09 00:23:24;;;;;;;8.23;7.47;;;;;;;10.88;73.48;95283.19;5097062;28;20724;-70
2022/10/09 00:25:52;;;;;;;7.95;7.32;;;;;;;10.87;73.64;95290.69;5096433;28;20196;-70
2022/10/09 00:28:20;;;;;;;8.30;7.50;;;;;;;10.84;73.79;95278.38;5096507;28;20192;-70
2022/10/09 00:30:47;;;;;;;7.97;7.20;;;;;;;10.87;73.74;95281.59;5096026;28;20204;-70
2022/10/09 00:33:14;;;;;;;8.15;7.45;;;;;;;10.83;73.46;95279.53;5095858;28;20597;-70
2022/10/09 00:35:41;;;;;;;8.05;7.35;;;;;;;10.80;73.50;95280.22;5096154;28;20193;-70
2022/10/09 00:38:09;;;;;;;8.90;7.72;;;;;;;10.74;73.41;95276.09;5096202;28;20228;-69
2022/10/09 00:40:37;;;;;;;8.05;7.35;;;;;;;10.68;73.08;95269.25;5096871;28;20200;-69
2022/10/09 00:43:07;;;;;;;8.27;7.40;;;;;;;10.66;73.33;95271.53;5096751;28;20196;-69
2022/10/09 00:45:34;;;;;;;8.73;7.90;;;;;;;10.65;73.51;95269.13;5095815;28;20207;-69
2022/10/09 00:48:05;;;;;;;8.13;7.43;;;;;;;10.63;73.17;95265.91;5096176;28;20215;-69
2022/10/09 00:50:38;;;;;;;8.20;7.40;;;;;;;10.62;73.00;95259.59;5095968;28;20215;-69
2022/10/09 00:53:05;;;;;;;8.68;7.72;;;;;;;10.58;73.58;95262.25;5096457;28;20196;-69
2022/10/09 00:55:35;;;;;;;7.47;6.78;;;;;;;10.57;73.24;95251.56;5096134;28;20196;-69
2022/10/09 00:58:02;;;;;;;8.35;7.55;;;;;;;10.53;73.53;95256.97;5096818;28;20180;-69
2022/10/09 01:00:29;;;;;;;8.13;7.32;;;;;;;10.51;73.35;95251.00;5095641;28;20207;-69
2022/10/09 01:02:56;;;;;;;7.72;6.93;;;;;;;10.49;73.28;95252.47;5095668;28;20195;-69
2022/10/09 01:05:28;;;;;;;8.00;7.10;;;;;;;10.47;73.82;95255.59;5096400;28;20184;-69
2022/10/09 01:07:59;;;;;;;7.70;6.95;;;;;;;10.48;73.75;95254.44;5095517;28;20207;-69
2022/10/09 01:10:31;;;;;;;6.85;6.25;;;;;;;10.49;73.81;95249.72;5095562;28;20193;-69
2022/10/09 01:13:06;;;;;;;6.90;6.30;;;;;;;10.49;74.28;95255.25;5096421;28;20253;-69
2022/10/09 01:15:37;;;;;;;8.43;7.07;;;;;;;10.47;73.75;95252.84;5096629;28;20199;-69
2022/10/09 01:18:07;;;;;;;7.30;6.70;;;;;;;10.44;74.08;95253.53;5095600;28;20200;-69
2022/10/09 01:20:41;;;;;;;7.60;6.82;;;;;;;10.45;74.19;95254.34;5095055;28;20200;-68
2022/10/09 01:23:32;;;;;;;7.85;7.05;;;;;;;10.46;74.10;95255.97;5095100;28;20253;-69
2022/10/09 01:26:08;;;;;;;7.35;6.50;;;;;;;10.44;73.67;95255.50;5095360;28;20233;-69
2022/10/09 01:28:36;;;;;;;7.63;6.43;;;;;;;10.41;73.97;95265.25;5095134;28;20195;-70
2022/10/09 01:31:05;;;;;;;6.90;6.30;;;;;;;10.40;74.29;95258.13;5094601;28;20185;-70
2022/10/09 01:33:32;;;;;;;7.07;6.38;;;;;;;10.37;73.88;95264.34;5095922;28;20192;-70
2022/10/09 01:36:02;;;;;;;7.68;7.00;;;;;;;10.36;73.63;95260.78;5095240;28;20188;-69
2022/10/09 01:38:30;;;;;;;7.57;6.88;;;;;;;10.34;74.04;95257.56;5095463;28;20529;-69
2022/10/09 01:40:57;;;;;;;7.55;6.85;;;;;;;10.33;73.81;95257.91;5095458;28;20615;-69
2022/10/09 01:43:23;;;;;;;8.50;6.97;;;;;;;10.32;73.57;95254.34;5095450;28;20245;-69
2022/10/09 01:45:52;;;;;;;7.68;6.65;;;;;;;10.30;73.83;95256.66;5094844;28;20188;-70
2022/10/09 01:48:23;;;;;;;7.32;6.68;;;;;;;10.32;74.13;95259.06;5094770;28;20188;-70
2022/10/09 01:50:53;;;;;;;8.93;6.93;;;;;;;10.31;73.79;95261.03;5094678;28;20193;-70
2022/10/09 01:53:21;;;;;;;8.88;7.00;;;;;;;10.31;73.94;95257.44;5094675;28;20329;-70
2022/10/09 01:55:51;;;;;;;7.25;6.55;;;;;;;10.29;74.18;95266.06;5094664;28;20200;-70
2022/10/09 01:58:20;;;;;;;7.82;7.05;;;;;;;10.30;74.03;95264.13;5095547;28;20196;-70
2022/10/09 02:00:54;;;;;;;7.22;6.57;;;;;;;10.28;73.98;95260.91;5095255;28;20196;-70
2022/10/09 02:03:24;;;;;;;7.50;6.85;;;;;;;10.27;74.22;95264.81;5094993;28;20188;-69
2022/10/09 02:05:52;;;;;;;8.48;7.57;;;;;;;10.28;74.50;95270.00;5095007;28;20192;-69
2022/10/09 02:08:20;;;;;;;7.97;7.20;;;;;;;10.28;74.77;95274.72;5095617;28;20241;-69
2022/10/09 02:10:49;;;;;;;7.53;6.82;;;;;;;10.28;74.66;95274.72;5094375;28;20188;-69
2022/10/09 02:13:16;;;;;;;7.45;6.85;;;;;;;10.21;74.35;95269.75;5095485;28;20519;-69
2022/10/09 02:15:46;;;;;;;8.15;7.13;;;;;;;10.20;74.35;95270.88;5094230;28;20204;-69
2022/10/09 02:18:17;;;;;;;7.63;6.93;;;;;;;10.21;74.46;95277.19;5094456;28;20632;-69
2022/10/09 02:20:48;;;;;;;7.68;6.95;;;;;;;10.18;74.38;95280.66;5095720;28;20222;-70
2022/10/09 02:23:15;;;;;;;9.23;7.22;;;;;;;10.18;74.46;95277.88;5095279;28;20200;-70
2022/10/09 02:25:42;;;;;;;8.00;6.97;;;;;;;10.17;74.34;95288.13;5094049;28;20211;-70
2022/10/09 02:28:09;;;;;;;7.97;7.18;;;;;;;10.17;74.53;95287.28;5094445;28;20212;-70
2022/10/09 02:30:41;;;;;;;7.93;7.20;;;;;;;10.13;74.38;95289.97;5094845;28;20188;-70
2022/10/09 02:33:08;;;;;;;8.07;7.28;;;;;;;10.10;74.20;95290.63;5095227;28;20188;-70
2022/10/09 02:35:38;;;;;;;8.15;7.30;;;;;;;10.07;74.23;95291.31;5094195;28;20204;-70
2022/10/09 02:38:04;;;;;;;8.57;7.30;;;;;;;10.06;74.44;95282.25;5094189;28;20239;-70
2022/10/09 02:40:31;;;;;;;8.30;7.50;;;;;;;10.04;73.96;95284.53;5093744;28;20219;-70
2022/10/09 02:42:58;;;;;;;9.05;7.22;;;;;;;10.02;74.25;95280.50;5093907;28;20200;-70
2022/10/09 02:45:25;;;;;;;8.13;7.32;;;;;;;9.97;74.26;95280.75;5095054;28;20205;-70
2022/10/09 02:47:51;;;;;;;8.30;7.32;;;;;;;9.97;74.04;95286.25;5094299;28;20200;-71
2022/10/09 02:50:18;;;;;;;7.90;7.13;;;;;;;9.97;74.20;95295.34;5095092;28;20189;-70
2022/10/09 02:52:46;;;;;;;7.30;6.60;;;;;;;9.97;74.35;95286.25;5094081;28;20193;-70
2022/10/09 02:55:13;;;;;;;7.88;7.07;;;;;;;9.96;74.16;95290.97;5095337;28;20199;-71
2022/10/09 02:57:39;;;;;;;7.65;7.05;;;;;;;9.95;74.24;95291.31;5098207;28;20196;-71
2022/10/09 03:00:08;;;;;;;8.18;7.47;;;;;;;9.95;74.66;95292.13;5098517;28;20608;-70
2022/10/09 03:02:34;;;;;;;8.60;7.47;;;;;;;9.97;74.71;95289.81;5098748;28;20184;-70
2022/10/09 03:05:01;;;;;;;8.07;7.28;;;;;;;9.97;74.75;95283.50;5098589;28;20216;-70
2022/10/09 03:07:28;;;;;;;7.28;6.60;;;;;;;9.92;74.65;95292.81;5098791;28;20233;-70
2022/10/09 03:09:57;;;;;;;11.00;7.15;;;;;;;9.93;74.23;95293.63;5097520;28;20203;-69
2022/10/09 03:12:24;;;;;;;9.00;6.90;;;;;;;9.90;74.48;95286.81;5097667;28;20200;-70
2022/10/09 03:14:50;;;;;;;7.70;6.90;;;;;;;9.88;74.62;95300.16;5097484;28;20188;-70
2022/10/09 03:17:17;;;;;;;8.50;6.90;;;;;;;9.86;74.46;95299.69;5098522;28;20181;-70
2022/10/09 03:19:44;;;;;;;8.00;7.22;;;;;;;9.83;74.45;95303.13;5098585;28;20200;-70
2022/10/09 03:22:10;;;;;;;8.77;7.90;;;;;;;9.80;74.60;95303.81;5098116;28;20192;-70
2022/10/09 03:24:37;;;;;;;9.00;7.90;;;;;;;9.77;74.49;95297.03;5097380;28;20219;-70
2022/10/09 03:27:05;;;;;;;9.73;8.45;;;;;;;9.74;74.42;95311.50;5097061;28;20200;-70
2022/10/09 03:29:32;;;;;;;10.13;9.13;;;;;;;9.73;74.72;95307.16;5098232;28;20192;-70
2022/10/09 03:31:59;;;;;;;9.43;8.48;;;;;;;9.73;74.68;95314.56;5097059;28;20231;-69
2022/10/09 03:34:26;;;;;;;10.07;8.15;;;;;;;9.70;74.72;95312.53;5080679;28;20188;-69
2022/10/09 03:36:52;;;;;;;8.95;8.05;;;;;;;9.70;74.88;95315.28;5097835;28;20232;-69
2022/10/09 03:39:19;;;;;;;9.15;8.20;;;;;;;9.68;74.76;95314.81;5097109;28;20257;-69
2022/10/09 03:41:46;;;;;;;9.80;8.80;;;;;;;9.68;74.84;95320.31;5097142;28;20196;-70
2022/10/09 03:44:14;;;;;;;10.70;8.73;;;;;;;9.69;74.72;95317.22;5096816;28;20216;-70
2022/10/09 03:46:41;;;;;;;9.40;8.50;;;;;;;9.69;74.60;95313.66;5097049;28;20230;-70
2022/10/09 03:49:08;;;;;;;9.63;8.65;;;;;;;9.68;74.62;95312.06;5097565;28;20188;-70
2022/10/09 03:51:34;;;;;;;9.10;8.05;;;;;;;9.65;74.77;95311.56;5097907;28;20192;-70
2022/10/09 03:54:01;;;;;;;8.38;7.60;;;;;;;9.61;74.51;95316.16;5097659;28;20196;-69
2022/10/09 03:56:28;;;;;;;8.70;7.80;;;;;;;9.55;74.32;95317.53;5097481;28;20188;-70
2022/10/09 03:58:55;;;;;;;8.60;7.57;;;;;;;9.52;74.55;95314.66;5097709;28;20176;-69
2022/10/09 04:01:23;;;;;;;8.75;7.65;;;;;;;9.50;74.72;95314.19;5097604;28;20222;-69
2022/10/09 04:03:50;;;;;;;9.73;8.15;;;;;;;9.47;74.62;95309.34;5096882;28;20250;-69
2022/10/09 04:06:17;;;;;;;8.88;7.43;;;;;;;9.45;74.58;95311.66;5096148;28;20200;-70
2022/10/09 04:08:44;;;;;;;10.73;8.27;;;;;;;9.44;74.94;95305.34;5095960;28;20215;-70
2022/10/09 04:11:10;;;;;;;8.82;8.02;;;;;;;9.44;75.11;95313.63;5096732;28;20192;-70
2022/10/09 04:13:37;;;;;;;9.57;8.52;;;;;;;9.45;75.29;95317.97;5096894;28;20192;-70
2022/10/09 04:16:04;;;;;;;9.40;8.40;;;;;;;9.46;75.08;95319.56;5096375;28;20199;-70
2022/10/09 04:18:32;;;;;;;8.98;8.07;;;;;;;9.45;75.18;95315.22;5097234;28;20184;-70
2022/10/09 04:20:59;;;;;;;9.10;7.95;;;;;;;9.46;75.26;95313.25;5098028;28;20207;-70
2022/10/09 04:23:27;;;;;;;9.43;8.52;;;;;;;9.45;75.18;95317.16;5096855;28;20196;-70
2022/10/09 04:25:54;;;;;;;13.52;8.40;;;;;;;9.43;75.10;95322.19;5097150;28;20208;-69
2022/10/09 04:28:22;;;;;;;9.77;8.55;;;;;;;9.39;74.83;95325.63;5096135;28;20224;-69
2022/10/09 04:30:48;;;;;;;10.88;9.77;;;;;;;9.34;74.87;95319.53;5096115;28;20200;-70
2022/10/09 04:33:15;;;;;;;12.90;9.70;;;;;;;9.33;74.85;95328.91;5097020;28;20184;-70
2022/10/09 04:35:44;;;;;;;12.07;10.27;;;;;;;9.30;74.89;95326.88;5096384;28;20567;-70
2022/10/09 04:38:10;;;;;;;13.50;10.02;;;;;;;9.30;74.87;95327.66;5096497;28;20240;-69
2022/10/09 04:40:37;;;;;;;9.68;8.52;;;;;;;9.29;74.88;95325.25;5096618;28;20192;-69
2022/10/09 04:43:04;;;;;;;10.23;8.68;;;;;;;9.29;74.89;95328.00;5096838;28;20213;-69
2022/10/09 04:45:31;;;;;;;12.35;9.15;;;;;;;9.29;74.84;95330.75;5095954;28;20217;-70
2022/10/09 04:47:58;;;;;;;10.80;9.13;;;;;;;9.27;74.76;95342.09;5096713;28;20192;-70
2022/10/09 04:50:24;;;;;;;10.98;9.85;;;;;;;9.28;74.92;95340.16;5095340;28;20276;-70
2022/10/09 04:52:53;;;;;;;11.57;10.38;;;;;;;9.27;74.90;95339.34;5096611;28;20203;-70
2022/10/09 04:55:20;;;;;;;12.27;10.38;;;;;;;9.25;74.63;95338.06;5096147;28;20201;-70
2022/10/09 04:57:47;;;;;;;12.35;11.07;;;;;;;9.21;74.84;95345.41;5095845;28;20188;-70
2022/10/09 05:00:14;;;;;;;11.90;10.55;;;;;;;9.21;74.87;95337.13;5096533;28;20208;-70
2022/10/09 05:02:41;;;;;;;12.55;10.40;;;;;;;9.21;75.06;95345.41;5095451;28;20200;-70
2022/10/09 05:05:08;;;;;;;11.70;10.50;;;;;;;9.22;75.27;95342.28;5095408;28;20212;-70
2022/10/09 05:07:35;;;;;;;12.60;11.18;;;;;;;9.23;75.47;95343.94;5095535;28;20201;-70
2022/10/09 05:10:04;;;;;;;12.43;10.95;;;;;;;9.23;75.07;95349.44;5095263;28;20607;-70
2022/10/09 05:12:31;;;;;;;11.27;10.27;;;;;;;9.24;75.28;95353.78;5095597;28;20266;-70
2022/10/09 05:14:58;;;;;;;12.52;10.68;;;;;;;9.25;75.50;95349.88;5096133;28;20188;-70
2022/10/09 05:17:24;;;;;;;11.05;9.95;;;;;;;9.31;75.49;95354.03;5096317;28;20211;-70
2022/10/09 05:19:51;;;;;;;14.13;12.63;;;;;;;9.32;75.46;95354.84;5095992;28;20196;-70
2022/10/09 05:22:18;;;;;;;13.98;12.40;;;;;;;9.31;75.36;95365.06;5094921;28;20608;-70
2022/10/09 05:24:45;;;;;;;14.20;12.70;;;;;;;9.31;75.53;95359.53;5095859;28;20208;-70
2022/10/09 05:27:13;;;;;;;15.45;12.50;;;;;;;9.33;75.54;95356.44;5094837;28;20196;-68
2022/10/09 05:29:39;;;;;;;13.95;12.45;;;;;;;9.34;75.54;95367.13;5095843;28;20176;-68
2022/10/09 05:32:07;;;;;;;19.00;12.98;;;;;;;9.38;75.63;95368.06;5095140;28;20244;-68
2022/10/09 05:34:34;;;;;;;13.85;12.52;;;;;;;9.42;75.76;95370.16;5095952;28;20197;-68
2022/10/09 05:37:01;;;;;;;15.48;12.13;;;;;;;9.44;75.90;95371.44;5094728;28;20231;-68
2022/10/09 05:39:28;;;;;;;14.45;11.23;;;;;;;9.48;75.90;95369.59;5095813;28;20199;-68
2022/10/09 05:41:55;;;;;;;12.40;10.68;;;;;;;9.51;76.08;95373.59;5095656;28;20184;-68
2022/10/09 05:44:23;;;;;;;12.02;10.82;;;;;;;9.55;76.39;95372.63;5094693;28;20199;-69
2022/10/09 05:46:50;;;;;;;11.93;10.73;;;;;;;9.62;76.52;95363.78;5094802;28;20192;-69
2022/10/09 05:49:17;;;;;;;13.98;10.88;;;;;;;9.70;76.77;95373.13;5095014;28;20195;-68
2022/10/09 05:51:44;;;;;;;12.77;10.40;;;;;;;9.81;76.86;95377.84;5095929;28;20192;-68
2022/10/09 05:54:14;;;;;;;14.52;12.75;;;;;;;9.91;76.87;95376.59;5094950;28;20196;-68
2022/10/09 05:56:41;;;;;;;13.77;11.93;;;;;;;9.99;76.66;95378.47;5095251;28;20197;-69
2022/10/09 05:59:10;;;;;;;11.93;10.70;;;;;;;10.05;77.06;95374.31;5095052;28;20203;-67
2022/10/09 06:01:40;;;;;;;11.05;9.90;;;;;;;10.12;77.08;95385.59;5095419;28;20185;-68
2022/10/09 06:04:09;;;;;;;11.15;9.48;;;;;;;10.19;77.30;95387.78;5095650;28;20184;-67
2022/10/09 06:06:38;;;;;;;10.00;9.07;;;;;;;10.24;77.25;95387.59;5095081;28;20196;-67
2022/10/09 06:09:06;;;;;;;9.43;8.63;;;;;;;10.30;77.06;95386.22;5094504;28;20200;-67
2022/10/09 06:11:34;;;;;;;11.43;9.38;;;;;;;10.35;77.17;95399.00;5077827;28;20200;-67
2022/10/09 06:14:02;;;;;;;10.40;9.40;;;;;;;10.38;77.57;95403.81;5094544;28;20211;-67
2022/10/09 06:16:31;;;;;;;10.50;9.20;;;;;;;10.43;77.14;95403.59;5095126;28;20176;-67
2022/10/09 06:18:59;;;;;;;10.38;9.27;;;;;;;10.48;77.32;95400.59;5095276;28;20196;-67
2022/10/09 06:21:27;;;;;;;10.65;9.65;;;;;;;10.53;77.23;95407.84;5094419;28;20204;-67
2022/10/09 06:23:55;;;;;;;10.65;9.65;;;;;;;10.58;77.11;95411.19;5077560;28;20192;-67
2022/10/09 06:26:23;;;;;;;14.65;11.85;;;;;;;10.63;77.65;95415.66;5094202;28;20212;-67
2022/10/09 06:28:50;;;;;;;15.13;13.68;;;;;;;10.68;77.44;95417.41;5094108;28;20204;-67
2022/10/09 06:31:18;;;;;;;18.42;16.52;;;;;;;10.75;77.29;95421.19;5097598;28;20187;-67
2022/10/09 06:33:46;;;;;;;21.77;19.52;;;;;;;10.80;77.41;95420.94;5099317;28;20199;-67
2022/10/09 06:36:16;;;;;;;23.42;21.00;;;;;;;10.88;77.27;95418.41;5099320;28;20185;-67
2022/10/09 06:38:43;;;;;;;26.67;23.05;;;;;;;10.95;76.90;95419.44;5098909;28;20654;-67
2022/10/09 06:41:11;;;;;;;24.63;20.83;;;;;;;11.01;76.89;95420.81;5098436;28;20192;-67
2022/10/09 06:43:38;;;;;;;23.52;20.73;;;;;;;11.07;76.77;95424.13;5098878;28;20188;-67
2022/10/09 06:46:06;;;;;;;24.48;21.63;;;;;;;11.10;76.77;95423.44;5099058;28;20204;-67
2022/10/09 06:48:34;;;;;;;23.52;20.98;;;;;;;11.15;76.76;95431.50;5099171;28;20180;-67
2022/10/09 06:51:02;;;;;;;22.55;20.25;;;;;;;11.19;76.40;95429.66;5098716;28;20185;-67
2022/10/09 06:53:34;;;;;;;21.95;19.52;;;;;;;11.25;76.47;95430.19;5098854;28;20207;-67
2022/10/09 06:56:01;;;;;;;23.05;19.10;;;;;;;11.32;76.19;95425.69;5098868;28;20192;-66
2022/10/09 06:58:28;;;;;;;19.60;17.55;;;;;;;11.42;76.01;95420.84;5098676;28;20181;-67
2022/10/09 07:01:03;;;;;;;19.80;17.67;;;;;;;11.52;75.57;95417.59;5098780;28;20185;-68
2022/10/09 07:03:30;;;;;;;19.20;17.30;;;;;;;11.65;75.42;95423.88;5098909;28;20207;-68
2022/10/09 07:06:05;;;;;;;16.15;14.50;;;;;;;11.76;75.29;95419.44;5098418;28;20204;-68
2022/10/09 07:08:35;;;;;;;16.92;15.15;;;;;;;11.88;75.48;95421.41;5098309;28;20199;-69
2022/10/09 07:11:09;;;;;;;15.52;14.05;;;;;;;12.00;75.11;95422.13;5099017;28;20185;-69
2022/10/09 07:13:36;;;;;;;16.83;14.85;;;;;;;12.09;74.48;95426.69;5098191;28;20196;-68
2022/10/09 07:16:03;;;;;;;16.98;12.98;;;;;;;12.17;73.85;95425.75;5098738;28;20189;-68
2022/10/09 07:18:29;;;;;;;16.88;14.15;;;;;;;12.29;73.81;95423.69;5097560;28;20208;-68
2022/10/09 07:20:56;;;;;;;17.17;15.38;;;;;;;12.43;73.75;95431.56;5098000;28;20204;-68
2022/10/09 07:23:23;;;;;;;17.65;15.75;;;;;;;12.55;73.62;95427.09;5098864;28;20181;-68
2022/10/09 07:25:51;;;;;;;18.63;16.02;;;;;;;12.66;73.39;95422.63;5098646;28;20215;-69
2022/10/09 07:28:18;;;;;;;19.23;15.48;;;;;;;12.80;73.32;95436.84;5098719;28;20196;-69
2022/10/09 07:30:44;;;;;;;12.95;11.68;;;;;;;12.93;73.34;95438.34;5097721;28;20188;-68
2022/10/09 07:33:12;;;;;;;12.82;11.52;;;;;;;13.04;73.34;95433.06;5098859;28;20188;-68
2022/10/09 07:35:38;;;;;;;14.43;11.85;;;;;;;13.16;71.97;95430.16;5098872;28;20176;-68
2022/10/09 07:38:05;;;;;;;11.45;10.35;;;;;;;13.29;71.67;95433.69;5098423;28;20228;-69
2022/10/09 07:40:33;;;;;;;11.93;10.73;;;;;;;13.40;71.32;95442.22;5097685;28;20196;-69
2022/10/09 07:43:02;;;;;;;12.35;10.55;;;;;;;13.56;70.62;95439.38;5098270;28;20189;-69
2022/10/09 07:45:28;;;;;;;10.90;9.77;;;;;;;13.67;70.86;95441.22;5098025;28;20205;-69
2022/10/09 07:47:55;;;;;;;10.40;9.15;;;;;;;13.77;69.94;95434.31;5098595;28;20192;-69
2022/10/09 07:50:22;;;;;;;11.75;10.07;;;;;;;13.92;70.46;95436.19;5098386;28;20185;-69
2022/10/09 07:52:49;;;;;;;12.40;10.90;;;;;;;14.01;70.33;95435.16;5096979;28;20199;-69
2022/10/09 07:55:16;;;;;;;11.50;9.82;;;;;;;14.06;70.00;95432.09;5098071;28;20189;-69
2022/10/09 07:57:42;;;;;;;11.55;10.00;;;;;;;14.21;70.38;95436.75;5097895;28;20197;-69
2022/10/09 08:00:12;;;;;;;10.73;9.57;;;;;;;14.35;71.09;95439.00;5097590;28;20201;-69
2022/10/09 08:02:39;;;;;;;10.48;9.45;;;;;;;14.50;70.96;95429.78;5098430;28;20203;-69
2022/10/09 08:05:07;;;;;;;11.23;10.07;;;;;;;14.66;70.07;95435.22;5098256;28;20199;-69
2022/10/09 08:07:34;;;;;;;11.48;9.82;;;;;;;14.86;70.12;95422.88;5098437;28;20215;-69
2022/10/09 08:10:01;;;;;;;10.70;9.52;;;;;;;15.05;70.13;95426.72;5097335;28;20607;-69
2022/10/09 08:12:28;;;;;;;8.57;7.75;;;;;;;15.28;67.48;95415.56;5098318;28;20200;-69
2022/10/09 08:14:54;;;;;;;7.82;6.50;;;;;;;15.43;66.05;95414.56;5097687;28;20189;-69
2022/10/09 08:17:22;;;;;;;7.70;6.97;;;;;;;15.68;67.63;95412.16;5097327;28;20189;-69
2022/10/09 08:19:49;;;;;;;7.30;5.90;;;;;;;15.76;64.77;95407.50;5097623;28;20207;-68
2022/10/09 08:22:16;;;;;;;7.07;6.38;;;;;;;15.78;65.34;95408.72;5096973;28;20620;-69
2022/10/09 08:24:43;;;;;;;6.57;6.05;;;;;;;15.90;65.82;95407.66;5097942;28;20199;-68
2022/10/09 08:27:09;;;;;;;6.95;6.07;;;;;;;15.97;63.91;95409.75;5096568;28;20226;-68
2022/10/09 08:29:36;;;;;;;6.82;6.10;;;;;;;16.00;64.12;95406.22;5095940;28;20200;-69
2022/10/09 08:32:03;;;;;;;6.50;5.90;;;;;;;16.12;65.12;95409.53;5097059;28;20242;-68
2022/10/09 08:34:31;;;;;;;7.13;6.43;;;;;;;16.30;64.14;95415.31;5096191;28;20211;-67
2022/10/09 08:36:58;;;;;;;6.32;5.78;;;;;;;16.50;62.90;95413.09;5095932;28;20240;-67
2022/10/09 08:39:29;;;;;;;7.03;6.30;;;;;;;16.55;61.72;95411.94;5096890;28;20189;-67
2022/10/09 08:41:56;;;;;;;8.77;6.10;;;;;;;16.63;61.55;95407.25;5095982;28;20249;-67
2022/10/09 08:44:25;;;;;;;8.25;6.40;;;;;;;16.74;63.19;95411.78;5096528;28;20567;-67
2022/10/09 08:47:03;;;;;;;5.85;5.35;;;;;;;16.90;61.67;95405.94;5095793;28;20216;-67
2022/10/09 08:49:37;;;;;;;6.90;5.95;;;;;;;17.02;61.49;95408.41;5096607;28;20196;-67
2022/10/09 08:52:15;;;;;;;9.07;6.50;;;;;;;17.18;61.99;95402.56;5095964;28;20204;-67
2022/10/09 08:54:42;;;;;;;6.13;5.53;;;;;;;17.32;60.58;95385.16;5095454;28;20200;-67
2022/10/09 08:57:11;;;;;;;6.07;5.57;;;;;;;17.43;61.83;95385.19;5097462;28;20196;-69
2022/10/09 08:59:38;;;;;;;7.93;5.35;;;;;;;17.52;59.74;95383.66;5098065;28;20195;-69
2022/10/09 09:02:14;;;;;;;5.28;4.78;;;;;;;17.63;58.22;95386.50;5096327;28;20203;-69
2022/10/09 09:04:53;;;;;;;5.75;4.78;;;;;;;17.76;59.20;95375.84;5097224;28;20276;-68
2022/10/09 09:07:25;;;;;;;5.50;5.00;;;;;;;17.78;59.22;95388.19;5096180;28;20705;-68
2022/10/09 09:09:54;;;;;;;5.57;5.07;;;;;;;17.64;59.65;95378.94;5095799;28;20200;-68
2022/10/09 09:12:27;;;;;;;5.85;5.15;;;;;;;17.63;61.56;95374.56;5095374;28;20195;-68
2022/10/09 09:15:07;;;;;;;6.53;4.80;;;;;;;17.53;60.56;95384.47;5095986;28;20185;-68
2022/10/09 09:17:38;;;;;;;5.75;5.00;;;;;;;17.62;61.76;95375.75;5096298;28;20199;-69
2022/10/09 09:20:12;;;;;;;5.20;4.70;;;;;;;17.61;60.06;95376.91;5095631;28;20576;-68
2022/10/09 09:22:42;;;;;;;5.53;4.80;;;;;;;17.61;60.48;95379.72;5095865;28;20608;-68
2022/10/09 09:25:19;;;;;;;5.43;4.93;;;;;;;17.69;59.50;95384.16;5095711;28;20196;-68
2022/10/09 09:27:46;;;;;;;6.60;4.90;;;;;;;17.70;59.14;95380.16;5095805;28;20211;-67
2022/10/09 09:30:16;;;;;;;5.40;4.60;;;;;;;17.69;60.38;95384.16;5095878;28;20184;-67
2022/10/09 09:32:48;;;;;;;5.18;4.68;;;;;;;17.73;59.79;95384.97;5095957;28;20184;-68
2022/10/09 09:35:22;;;;;;;5.25;4.85;;;;;;;17.69;59.56;95381.38;5096154;28;20196;-67
2022/10/09 09:37:49;;;;;;;5.10;4.70;;;;;;;17.69;59.62;95384.94;5094665;28;20244;-68
2022/10/09 09:40:34;;;;;;;4.47;4.10;;;;;;;17.79;59.46;95378.66;5096002;28;20184;-68
2022/10/09 09:43:01;;;;;;;4.80;4.32;;;;;;;17.91;58.55;95385.06;5094628;28;20200;-68
2022/10/09 09:45:28;;;;;;;5.30;4.80;;;;;;;17.97;58.66;95381.53;5094625;28;20202;-68
2022/10/09 09:47:58;;;;;;;4.78;4.47;;;;;;;18.02;59.84;95383.91;5094715;28;20212;-68
2022/10/09 09:50:30;;;;;;;5.05;4.55;;;;;;;18.06;57.78;95381.13;5095873;28;20188;-68
2022/10/09 09:52:57;;;;;;;5.22;4.72;;;;;;;18.09;56.87;95388.72;5094693;28;20669;-69
2022/10/09 09:55:27;;;;;;;4.60;4.20;;;;;;;18.04;57.62;95381.50;5095677;28;20200;-69
2022/10/09 09:58:00;;;;;;;4.90;4.50;;;;;;;18.01;58.20;95389.88;5095146;28;20196;-68
2022/10/09 10:00:27;;;;;;;5.38;4.43;;;;;;;18.11;58.49;95382.75;5095814;28;20181;-68
2022/10/09 10:03:02;;;;;;;5.00;4.43;;;;;;;18.18;58.27;95394.72;5094724;28;20204;-69
2022/10/09 10:05:36;;;;;;;6.18;4.38;;;;;;;18.19;58.20;95387.16;5094530;28;20635;-68
2022/10/09 10:08:13;;;;;;;4.75;4.28;;;;;;;18.25;57.63;95385.56;5095571;28;20242;-69
2022/10/09 10:10:44;;;;;;;6.57;4.47;;;;;;;18.31;57.91;95386.00;5095092;28;20203;-69
2022/10/09 10:13:15;;;;;;;5.22;4.65;;;;;;;18.38;57.63;95386.03;5095186;28;20184;-69
2022/10/09 10:15:50;;;;;;;5.03;4.45;;;;;;;18.49;58.83;95384.03;5095348;28;20180;-68
2022/10/09 10:18:18;;;;;;;5.32;4.55;;;;;;;18.58;56.86;95386.44;5094650;28;20213;-68
2022/10/09 10:20:47;;;;;;;5.03;4.55;;;;;;;18.57;55.87;95387.63;5095137;28;20261;-68
2022/10/09 10:23:31;;;;;;;5.18;4.07;;;;;;;18.52;55.90;95384.06;5094515;28;20640;-69
2022/10/09 10:26:00;;;;;;;6.35;4.50;;;;;;;18.57;56.32;95380.06;5094830;28;20292;-70
2022/10/09 10:28:29;;;;;;;6.20;4.80;;;;;;;18.67;57.41;95384.06;5094830;28;20195;-69
2022/10/09 10:30:57;;;;;;;4.88;4.47;;;;;;;18.73;55.61;95385.28;5095113;28;20573;-69
2022/10/09 10:33:27;;;;;;;4.90;3.90;;;;;;;18.66;56.39;95380.44;5095179;28;20249;-70
2022/10/09 10:35:56;;;;;;;5.40;4.90;;;;;;;18.75;56.95;95371.72;5095901;28;20195;-69
2022/10/09 10:38:25;;;;;;;5.05;4.30;;;;;;;18.81;56.99;95378.53;5094999;28;20254;-69
2022/10/09 10:40:55;;;;;;;6.88;4.65;;;;;;;18.86;57.31;95369.72;5095970;28;20188;-70
2022/10/09 10:43:31;;;;;;;4.93;4.50;;;;;;;19.05;54.34;95359.34;5094769;28;20200;-70
2022/10/09 10:46:06;;;;;;;4.93;4.53;;;;;;;19.18;54.33;95352.94;5095157;28;20202;-69
2022/10/09 10:48:34;;;;;;;4.90;4.50;;;;;;;19.36;53.74;95357.72;5095929;28;20192;-70
2022/10/09 10:51:09;;;;;;;4.35;3.95;;;;;;;19.36;50.97;95350.09;5094648;28;20200;-70
2022/10/09 10:53:52;;;;;;;4.03;3.72;;;;;;;19.24;49.21;95350.50;5095160;28;20202;-70
2022/10/09 10:56:24;;;;;;;5.40;3.75;;;;;;;19.15;49.73;95344.56;5095210;28;20739;-69
2022/10/09 10:58:56;;;;;;;3.92;3.63;;;;;;;19.17;50.98;95340.16;5095558;28;20201;-70
2022/10/09 11:01:31;;;;;;;4.38;4.07;;;;;;;19.27;51.02;95334.94;5094987;28;20196;-71
2022/10/09 11:04:13;;;;;;;4.65;3.85;;;;;;;19.30;52.53;95340.53;5095985;28;20199;-70
2022/10/09 11:06:46;;;;;;;4.88;4.35;;;;;;;19.31;52.27;95336.53;5094674;28;20227;-70
2022/10/09 11:09:19;;;;;;;5.05;4.53;;;;;;;19.38;52.18;95330.91;5094728;28;20192;-70
2022/10/09 11:11:50;;;;;;;5.15;4.65;;;;;;;19.41;52.11;95332.09;5095134;28;20548;-70
2022/10/09 11:14:41;;;;;;;5.15;4.65;;;;;;;19.45;52.27;95325.28;5095045;28;20177;-67
2022/10/09 11:17:18;;;;;;;5.53;5.03;;;;;;;19.44;52.80;95320.13;5096590;28;20246;-69
2022/10/09 11:19:56;;;;;;;5.70;4.45;;;;;;;19.60;52.17;95316.84;5099809;28;20196;-69
2022/10/09 11:22:53;;;;;;;4.85;4.35;;;;;;;19.65;49.97;95317.28;5098881;28;20187;-70
2022/10/09 11:25:25;;;;;;;5.15;4.25;;;;;;;19.67;50.43;95308.47;5098169;28;20204;-69
2022/10/09 11:27:54;;;;;;;4.90;4.50;;;;;;;19.65;51.01;95310.88;5098354;28;20576;-69
2022/10/09 11:30:24;;;;;;;5.47;4.93;;;;;;;19.65;51.37;95305.28;5098815;28;20180;-69
2022/10/09 11:32:56;;;;;;;5.80;5.28;;;;;;;19.60;51.33;95305.66;5098918;28;20189;-69
2022/10/09 11:35:24;;;;;;;5.30;4.80;;;;;;;19.64;51.36;95307.28;5098513;28;20184;-70
2022/10/09 11:37:58;;;;;;;5.13;4.68;;;;;;;19.67;50.97;95308.47;5098015;28;20247;-67
2022/10/09 11:40:27;;;;;;;4.80;4.38;;;;;;;19.75;50.97;95307.22;5098426;28;20242;-69